Terminal Aerodrome Forecast
Issued by NWS Quad Cities IA IL

Home | Current Version | Previous Version | Text Only | Print | Product List | Glossary On
Versions: 1 2 3 4 5 6 7 8 9 10 11 12 13 14 15 16 17 18 19 20 21
000
FTUS43 KDVN 171100
TAFMLI
TAF
KMLI 171135Z 1712/1812 07004KT 5SM BR SCT004
      TEMPO 1712/1714 1 1/2SM BR VV004
     FM171500 08006KT P6SM BKN015
     FM171800 07007KT P6SM SCT030 SCT250
     FM180600 08003KT 4SM BR SKC
     FM180900 09002KT 1SM BR SCT009=

USA.gov is the U.S. government's official web portal to all federal, state and local government web resources and services.